createdAt,value
2023-05-06T00:04:22.204Z,79.52
2023-05-06T00:09:25.125Z,79.75
2023-05-06T00:14:28.070Z,80.04
2023-05-06T00:19:31.344Z,79.50
2023-05-06T00:24:34.049Z,79.35
2023-05-06T00:29:36.851Z,78.98
2023-05-06T00:34:39.713Z,78.77
2023-05-06T00:39:42.561Z,78.17
2023-05-06T00:44:45.403Z,77.36
2023-05-06T00:49:48.420Z,76.41
2023-05-06T00:54:51.378Z,75.81
2023-05-06T00:59:54.693Z,76.33
2023-05-06T01:04:57.455Z,76.78
2023-05-06T01:10:00.341Z,76.72
2023-05-06T01:15:12.005Z,76.78
2023-05-06T01:20:15.570Z,76.60
2023-05-06T01:25:22.443Z,76.33
2023-05-06T01:30:31.871Z,76.99
2023-05-06T01:35:53.665Z,77.46
2023-05-06T01:40:58.475Z,77.54
2023-05-06T01:46:02.512Z,77.74
2023-05-06T01:51:05.639Z,78.26
2023-05-06T01:56:09.258Z,78.60
2023-05-06T02:01:12.097Z,78.27
2023-05-06T02:06:14.908Z,78.16
2023-05-06T02:11:17.883Z,78.18
2023-05-06T02:16:22.160Z,78.51
2023-05-06T02:21:25.087Z,78.63
2023-05-06T02:26:27.932Z,78.97
2023-05-06T02:31:32.175Z,79.82
2023-05-06T02:36:34.991Z,80.74
2023-05-06T02:41:37.749Z,81.22
2023-05-06T02:46:40.579Z,81.70
2023-05-06T02:51:43.468Z,81.98
2023-05-06T02:56:46.521Z,82.08
2023-05-06T03:01:49.720Z,82.16
2023-05-06T03:06:52.520Z,82.68
2023-05-06T03:11:56.927Z,82.95
2023-05-06T03:16:59.892Z,82.80
2023-05-06T03:22:03.103Z,83.00
2023-05-06T03:27:05.942Z,83.06
2023-05-06T03:32:08.832Z,82.98
2023-05-06T03:37:11.730Z,82.84
2023-05-06T03:42:14.867Z,82.33
2023-05-06T03:47:17.781Z,81.89
2023-05-06T03:52:21.143Z,81.28
2023-05-06T03:57:24.065Z,80.67
2023-05-06T04:02:27.039Z,79.72
2023-05-06T04:07:31.273Z,78.79
2023-05-06T04:12:34.411Z,77.94
2023-05-06T04:17:37.231Z,77.02
2023-05-06T04:22:40.096Z,75.74
2023-05-06T04:27:42.881Z,75.07
2023-05-06T04:32:46.206Z,73.98
2023-05-06T04:37:49.046Z,72.30
2023-05-06T04:42:52.507Z,71.14
2023-05-06T04:47:55.526Z,69.69
2023-05-06T04:52:58.341Z,68.59
2023-05-06T04:58:01.132Z,68.23
2023-05-06T05:03:04.148Z,66.86
2023-05-06T05:08:07.075Z,65.37
2023-05-06T05:13:10.068Z,64.97
2023-05-06T05:18:13.192Z,63.81
2023-05-06T05:23:16.333Z,62.56
2023-05-06T05:28:19.155Z,62.30
2023-05-06T05:33:22.011Z,62.12
2023-05-06T05:38:24.964Z,61.06
2023-05-06T05:43:27.775Z,60.34
2023-05-06T05:48:32.800Z,59.48
2023-05-06T05:53:35.722Z,58.61
2023-05-06T05:58:38.802Z,57.23
2023-05-06T06:03:42.192Z,56.74
2023-05-06T06:08:45.243Z,56.09
2023-05-06T06:13:48.051Z,54.58
2023-05-06T06:18:51.137Z,53.92
2023-05-06T06:23:53.919Z,53.41
2023-05-06T06:28:56.737Z,52.17
2023-05-06T06:33:59.545Z,51.80
2023-05-06T06:39:02.398Z,51.23
2023-05-06T06:44:06.146Z,50.34
2023-05-06T06:49:08.956Z,50.15
2023-05-06T06:54:11.760Z,49.13
2023-05-06T06:59:14.830Z,48.20
2023-05-06T07:04:17.695Z,47.10
2023-05-06T07:09:20.620Z,47.59
2023-05-06T07:14:23.427Z,46.90
2023-05-06T07:19:26.567Z,46.07
2023-05-06T07:24:29.271Z,45.11
2023-05-06T07:29:32.189Z,44.60
2023-05-06T07:34:36.211Z,44.38
2023-05-06T07:39:39.044Z,44.09
2023-05-06T07:44:41.817Z,42.91
2023-05-06T07:49:44.673Z,42.41
2023-05-06T07:54:47.561Z,41.60
2023-05-06T07:59:51.662Z,41.13
2023-05-06T08:04:54.601Z,40.65
2023-05-06T08:09:57.922Z,41.24
2023-05-06T08:15:00.963Z,40.28
2023-05-06T08:20:04.047Z,39.40
2023-05-06T08:25:07.426Z,39.68
2023-05-06T08:30:10.933Z,39.55
2023-05-06T08:35:14.092Z,39.39
2023-05-06T08:40:22.090Z,38.82
2023-05-06T08:45:27.405Z,38.84
2023-05-06T08:50:33.462Z,38.65
2023-05-06T08:55:37.340Z,38.51
2023-05-06T09:00:40.587Z,37.86
2023-05-06T09:05:43.571Z,38.28
2023-05-06T09:10:47.470Z,38.27
2023-05-06T09:15:54.461Z,38.37
2023-05-06T09:20:59.393Z,38.81
2023-05-06T09:26:03.742Z,38.76
2023-05-06T09:31:07.132Z,39.08
2023-05-06T09:36:13.481Z,38.97
2023-05-06T09:41:21.148Z,39.05
2023-05-06T09:46:25.519Z,39.68
2023-05-06T09:51:28.696Z,39.12
2023-05-06T09:56:31.990Z,38.02
2023-05-06T10:01:37.585Z,38.29
2023-05-06T10:06:41.066Z,37.65
2023-05-06T10:11:45.569Z,37.22
2023-05-06T10:16:49.645Z,37.00
2023-05-06T10:22:04.444Z,37.56
2023-05-06T10:27:12.261Z,37.41
2023-05-06T10:32:17.467Z,37.35
2023-05-06T10:37:25.989Z,37.06
2023-05-06T10:42:34.103Z,37.34
2023-05-06T10:47:56.098Z,38.07
2023-05-06T10:52:59.314Z,38.04
2023-05-06T10:58:12.711Z,38.63
2023-05-06T11:03:23.845Z,38.84
2023-05-06T11:08:27.302Z,38.70
2023-05-06T11:13:35.153Z,38.25
2023-05-06T11:18:41.714Z,38.71
2023-05-06T11:23:54.821Z,37.84
2023-05-06T11:29:06.041Z,37.45
2023-05-06T11:34:11.447Z,37.19
2023-05-06T11:39:14.618Z,36.41
2023-05-06T11:44:25.443Z,36.53
2023-05-06T11:49:28.360Z,35.54
2023-05-06T11:54:36.986Z,36.44
2023-05-06T11:59:41.285Z,37.00
2023-05-06T12:04:50.233Z,36.70
2023-05-06T12:09:53.379Z,36.69
2023-05-06T12:14:56.721Z,37.31
2023-05-06T12:19:59.860Z,37.13
2023-05-06T12:25:14.253Z,37.40
2023-05-06T12:30:29.309Z,37.64
2023-05-06T12:35:32.711Z,38.01
2023-05-06T12:40:36.090Z,38.61
2023-05-06T12:45:39.970Z,37.87
2023-05-06T12:50:45.031Z,37.59
2023-05-06T12:55:47.840Z,38.04
2023-05-06T13:00:50.622Z,38.24
2023-05-06T13:05:53.520Z,38.03
2023-05-06T13:10:56.499Z,37.85
2023-05-06T13:15:59.532Z,37.99
2023-05-06T13:21:02.453Z,38.36
2023-05-06T13:26:06.235Z,38.21
2023-05-06T13:31:09.366Z,37.57
2023-05-06T13:36:12.259Z,38.10
2023-05-06T13:41:14.985Z,37.93
2023-05-06T13:46:17.885Z,37.77
2023-05-06T13:51:20.980Z,38.09
2023-05-06T13:56:23.817Z,37.52
2023-05-06T14:01:26.681Z,38.26
2023-05-06T14:06:29.510Z,37.76
2023-05-06T14:11:32.341Z,37.81
2023-05-06T14:16:35.272Z,38.08
2023-05-06T14:21:38.056Z,38.49
2023-05-06T14:26:41.520Z,38.77
2023-05-06T14:31:45.354Z,38.89
2023-05-06T14:36:48.164Z,39.23
2023-05-06T14:41:51.243Z,39.61
2023-05-06T14:46:54.046Z,39.49
2023-05-06T14:51:58.034Z,39.96
2023-05-06T14:57:03.181Z,39.95
2023-05-06T15:02:09.300Z,39.71
2023-05-06T15:07:12.427Z,40.00
2023-05-06T15:12:15.436Z,40.11
2023-05-06T15:17:18.287Z,39.40
2023-05-06T15:22:20.975Z,40.14
2023-05-06T15:27:23.847Z,40.20
2023-05-06T15:32:27.043Z,40.36
2023-05-06T15:37:29.840Z,40.51
2023-05-06T15:42:32.673Z,40.70
2023-05-06T15:47:35.502Z,40.76
2023-05-06T15:52:38.365Z,40.76
2023-05-06T15:57:43.235Z,40.86
2023-05-06T16:02:46.444Z,41.38
2023-05-06T16:07:49.823Z,41.48
2023-05-06T16:12:54.094Z,41.23
2023-05-06T16:17:57.092Z,41.57
2023-05-06T16:23:00.182Z,41.76
2023-05-06T16:28:03.645Z,42.11
2023-05-06T16:33:06.644Z,42.03
2023-05-06T16:38:09.449Z,42.14
2023-05-06T16:43:12.313Z,42.40
2023-05-06T16:48:16.032Z,42.60
2023-05-06T16:53:19.031Z,42.89
2023-05-06T17:03:24.827Z,43.43
2023-05-06T17:08:27.724Z,43.78
2023-05-06T17:13:30.658Z,44.21
2023-05-06T17:18:33.532Z,44.62
2023-05-06T17:23:36.449Z,45.15
2023-05-06T17:28:39.300Z,45.67
2023-05-06T17:33:42.142Z,46.07
2023-05-06T17:38:45.271Z,46.59
2023-05-06T17:43:47.997Z,47.06
2023-05-06T17:48:50.848Z,47.44
2023-05-06T17:53:57.677Z,48.20
2023-05-06T17:59:14.676Z,48.97
2023-05-06T18:04:18.620Z,49.65
2023-05-06T18:09:21.830Z,50.22
2023-05-06T18:14:24.781Z,50.75
2023-05-06T18:19:27.689Z,51.39
2023-05-06T18:24:30.996Z,52.21
2023-05-06T18:29:34.935Z,53.12
2023-05-06T18:34:37.728Z,53.59
2023-05-06T18:39:45.533Z,54.04
2023-05-06T18:44:50.481Z,54.50
2023-05-06T18:49:53.535Z,54.80
2023-05-06T18:54:56.444Z,54.93
2023-05-06T18:59:59.292Z,55.06
2023-05-06T19:05:02.183Z,55.17
2023-05-06T19:10:11.504Z,55.41
2023-05-06T19:15:14.731Z,55.73
2023-05-06T19:20:17.668Z,56.21
2023-05-06T19:25:20.978Z,56.21
2023-05-06T19:30:23.794Z,56.63
2023-05-06T19:35:26.893Z,57.13
2023-05-06T19:40:29.706Z,57.48
2023-05-06T19:45:33.886Z,58.14
2023-05-06T19:50:36.824Z,58.53
2023-05-06T19:55:39.663Z,58.88
2023-05-06T20:00:42.556Z,59.46
2023-05-06T20:05:45.433Z,59.95
2023-05-06T20:10:48.536Z,60.11
2023-05-06T20:15:51.366Z,60.63
2023-05-06T20:20:54.187Z,61.18
2023-05-06T20:25:57.199Z,61.59
2023-05-06T20:31:00.144Z,62.01
2023-05-06T20:36:04.077Z,62.43
2023-05-06T20:41:07.092Z,63.37
2023-05-06T20:46:10.484Z,64.01
2023-05-06T20:51:13.684Z,64.78
2023-05-06T20:56:22.902Z,65.19
2023-05-06T21:01:27.273Z,65.55
2023-05-06T21:06:30.384Z,65.95
2023-05-06T21:11:33.248Z,66.47
2023-05-06T21:16:36.117Z,66.36
2023-05-06T21:21:38.967Z,66.70
2023-05-06T21:26:41.866Z,66.52
2023-05-06T21:31:44.685Z,66.82
2023-05-06T21:36:47.509Z,67.07
2023-05-06T21:41:50.360Z,67.35
2023-05-06T21:46:53.208Z,67.62
2023-05-06T21:51:56.442Z,67.86
2023-05-06T21:56:59.152Z,68.08
2023-05-06T22:02:03.382Z,68.39
2023-05-06T22:07:07.185Z,68.42
2023-05-06T22:12:11.819Z,68.82
2023-05-06T22:17:15.790Z,68.90
2023-05-06T22:22:18.687Z,68.86
2023-05-06T22:27:21.563Z,69.19
2023-05-06T22:32:24.426Z,69.29
2023-05-06T22:37:27.377Z,69.53
2023-05-06T22:42:30.147Z,69.93
2023-05-06T22:47:33.030Z,70.16
2023-05-06T22:52:35.931Z,70.82
2023-05-06T22:57:38.780Z,71.66
2023-05-06T23:02:41.731Z,72.39
2023-05-06T23:07:44.649Z,72.80
2023-05-06T23:12:47.522Z,73.05
2023-05-06T23:17:50.499Z,73.61
2023-05-06T23:22:53.417Z,74.05
2023-05-06T23:27:56.319Z,74.51
2023-05-06T23:32:59.219Z,75.15
2023-05-06T23:38:02.085Z,75.70
2023-05-06T23:43:09.994Z,76.40
2023-05-06T23:48:12.904Z,76.54
2023-05-06T23:53:15.874Z,76.89
2023-05-06T23:58:18.706Z,77.14
